createdAt,value
2023-02-03T00:00:28.815Z,5.43
2023-02-03T00:02:59.534Z,4.28
2023-02-03T00:05:36.252Z,6.88
2023-02-03T00:08:33.253Z,2.75
2023-02-03T00:11:09.007Z,1.85
2023-02-03T00:13:37.506Z,4.82
2023-02-03T00:16:09.637Z,7.10
2023-02-03T00:18:39.355Z,3.00
2023-02-03T00:21:09.490Z,3.10
2023-02-03T00:23:37.607Z,3.45
2023-02-03T00:26:09.971Z,4.93
2023-02-03T00:28:39.366Z,5.80
2023-02-03T00:31:16.359Z,3.58
2023-02-03T00:33:47.112Z,4.00
2023-02-03T00:36:20.283Z,2.97
2023-02-03T00:38:50.247Z,3.75
2023-02-03T00:41:20.125Z,1.80
2023-02-03T00:43:49.541Z,3.75
2023-02-03T00:46:19.962Z,2.90
2023-02-03T00:48:49.646Z,4.68
2023-02-03T00:51:21.502Z,5.78
2023-02-03T00:53:54.342Z,5.32
2023-02-03T00:56:23.489Z,3.75
2023-02-03T00:58:52.698Z,3.83
2023-02-03T01:01:22.896Z,8.10
2023-02-03T01:04:25.598Z,3.15
2023-02-03T01:06:59.918Z,5.88
2023-02-03T01:09:30.143Z,4.18
2023-02-03T01:12:02.401Z,2.30
2023-02-03T01:14:32.043Z,3.60
2023-02-03T01:17:03.443Z,2.80
2023-02-03T01:19:35.188Z,3.42
2023-02-03T01:22:10.366Z,3.55
2023-02-03T01:24:38.614Z,3.58
2023-02-03T01:27:37.569Z,3.25
2023-02-03T01:30:14.235Z,1.73
2023-02-03T01:32:47.413Z,3.92
2023-02-03T01:35:31.178Z,2.20
2023-02-03T01:37:59.826Z,2.13
2023-02-03T01:40:31.843Z,1.67
2023-02-03T01:43:03.398Z,2.95
2023-02-03T01:45:31.896Z,2.78
2023-02-03T01:48:02.404Z,6.90
2023-02-03T01:50:38.546Z,3.67
2023-02-03T01:53:13.079Z,3.17
2023-02-03T01:55:50.173Z,3.45
2023-02-03T01:58:22.279Z,2.50
2023-02-03T02:04:16.551Z,1.73
2023-02-03T02:06:51.350Z,2.85
2023-02-03T02:09:30.539Z,1.63
2023-02-03T02:12:03.653Z,9.63
2023-02-03T02:14:34.208Z,3.78
2023-02-03T02:17:11.546Z,3.00
2023-02-03T02:20:26.335Z,2.15
2023-02-03T02:23:38.275Z,2.30
2023-02-03T02:26:31.261Z,2.08
2023-02-03T02:29:20.103Z,3.33
2023-02-03T02:32:11.449Z,1.45
2023-02-03T02:34:48.417Z,3.33
2023-02-03T02:37:49.309Z,4.40
2023-02-03T02:40:54.137Z,3.38
2023-02-03T02:43:57.686Z,2.03
2023-02-03T02:46:35.218Z,2.35
2023-02-03T02:49:08.535Z,2.63
2023-02-03T02:51:39.916Z,4.88
2023-02-03T02:54:11.862Z,2.17
2023-02-03T02:56:46.627Z,4.90
2023-02-03T02:59:20.695Z,4.93
2023-02-03T03:01:49.883Z,3.50
2023-02-03T03:04:23.380Z,4.60
2023-02-03T03:06:59.397Z,1.80
2023-02-03T03:12:08.010Z,3.40
2023-02-03T03:18:57.211Z,4.03
2023-02-03T03:22:02.559Z,6.05
2023-02-03T03:24:43.431Z,8.18
2023-02-03T03:27:16.664Z,6.15
2023-02-03T03:29:50.723Z,5.55
2023-02-03T03:32:24.132Z,3.35
2023-02-03T03:34:55.501Z,5.40
2023-02-03T03:37:56.702Z,3.42
2023-02-03T03:40:34.308Z,3.05
2023-02-03T03:43:08.259Z,5.05
2023-02-03T03:45:47.643Z,2.95
2023-02-03T03:48:48.834Z,4.05
2023-02-03T03:51:23.575Z,7.00
2023-02-03T03:53:57.283Z,4.32
2023-02-03T03:56:31.547Z,3.05
2023-02-03T03:59:02.477Z,5.78
2023-02-03T04:01:39.212Z,1.98
2023-02-03T04:04:12.486Z,4.90
2023-02-03T04:06:43.807Z,3.53
2023-02-03T04:09:18.790Z,6.20
2023-02-03T04:12:03.380Z,5.50
2023-02-03T04:14:33.326Z,4.93
2023-02-03T04:17:01.552Z,4.38
2023-02-03T04:19:29.763Z,3.22
2023-02-03T04:22:00.015Z,6.13
2023-02-03T04:24:33.747Z,6.20
2023-02-03T04:27:08.819Z,9.27
2023-02-03T04:30:39.256Z,13.23
2023-02-03T04:33:07.439Z,16.80
2023-02-03T04:35:36.676Z,7.65
2023-02-03T04:38:07.829Z,6.07
2023-02-03T04:40:42.816Z,7.10
2023-02-03T04:43:21.130Z,5.68
2023-02-03T04:45:54.458Z,5.60
2023-02-03T04:48:26.607Z,5.20
2023-02-03T04:50:56.788Z,9.88
2023-02-03T04:53:27.095Z,7.80
2023-02-03T04:55:57.730Z,4.05
2023-02-03T05:03:41.750Z,5.55
2023-02-03T05:11:10.884Z,3.75
2023-02-03T05:14:09.188Z,5.07
2023-02-03T05:17:08.155Z,5.50
2023-02-03T05:19:50.535Z,4.10
2023-02-03T05:28:18.075Z,5.05
2023-02-03T05:35:30.515Z,5.57
2023-02-03T05:39:01.830Z,9.38
2023-02-03T05:46:05.251Z,5.22
2023-02-03T05:53:18.627Z,4.03
2023-02-03T06:00:22.059Z,4.55
2023-02-03T06:07:33.238Z,3.97
2023-02-03T06:14:35.737Z,5.75
2023-02-03T06:17:33.192Z,8.30
2023-02-03T06:24:15.360Z,6.03
2023-02-03T06:27:59.929Z,3.85
2023-02-03T06:31:43.886Z,10.50
2023-02-03T06:39:20.005Z,6.95
2023-02-03T06:47:20.544Z,8.93
2023-02-03T06:49:53.742Z,7.18
2023-02-03T06:52:28.048Z,6.78
2023-02-03T06:55:24.900Z,5.63
2023-02-03T07:01:41.330Z,6.75
2023-02-03T07:04:10.657Z,6.72
2023-02-03T07:07:16.715Z,4.95
2023-02-03T07:09:56.221Z,7.20
2023-02-03T07:13:26.211Z,7.28
2023-02-03T07:16:29.771Z,7.07
2023-02-03T07:19:32.072Z,4.22
2023-02-03T07:22:06.450Z,6.22
2023-02-03T07:25:39.986Z,11.52
2023-02-03T07:28:57.581Z,16.05
2023-02-03T07:32:02.768Z,8.40
2023-02-03T07:35:28.371Z,12.82
2023-02-03T07:38:01.380Z,9.77
2023-02-03T07:40:49.709Z,14.98
2023-02-03T07:44:43.352Z,15.30
2023-02-03T07:47:17.819Z,10.90
2023-02-03T07:51:16.585Z,13.70
2023-02-03T07:57:47.565Z,17.88
2023-02-03T08:00:33.238Z,11.68
2023-02-03T08:03:04.621Z,14.73
2023-02-03T08:05:37.859Z,11.80
2023-02-03T08:09:20.772Z,9.50
2023-02-03T08:12:21.237Z,6.85
2023-02-03T08:15:18.126Z,9.38
2023-02-03T08:21:05.007Z,6.47
2023-02-03T08:28:32.179Z,18.27
2023-02-03T08:31:34.223Z,16.75
2023-02-03T08:34:18.523Z,12.85
2023-02-03T08:37:22.058Z,11.70
2023-02-03T08:40:21.525Z,13.30
2023-02-03T08:43:52.059Z,18.08
2023-02-03T08:51:11.657Z,13.98
2023-02-03T08:54:10.215Z,17.25
2023-02-03T08:57:36.938Z,14.93
2023-02-03T09:00:37.641Z,17.83
2023-02-03T09:03:06.133Z,10.55
2023-02-03T09:05:38.698Z,14.93
2023-02-03T09:08:08.073Z,15.20
2023-02-03T09:11:33.585Z,18.85
2023-02-03T09:14:06.643Z,21.13
2023-02-03T09:16:54.537Z,16.95
2023-02-03T09:19:24.821Z,15.70
2023-02-03T09:22:03.424Z,14.48
2023-02-03T09:25:00.593Z,10.65
2023-02-03T09:31:47.197Z,7.75
2023-02-03T09:35:26.908Z,8.98
2023-02-03T09:39:09.277Z,11.23
2023-02-03T09:42:12.223Z,6.32
2023-02-03T09:45:08.006Z,5.38
2023-02-03T09:48:36.629Z,7.82
2023-02-03T09:52:09.140Z,6.97
2023-02-03T09:55:43.563Z,9.30
2023-02-03T09:58:46.478Z,9.15
2023-02-03T10:01:22.340Z,8.80
2023-02-03T10:13:15.131Z,10.13
2023-02-03T10:16:23.241Z,7.05
2023-02-03T10:19:28.490Z,7.00
2023-02-03T10:31:08.960Z,9.48
2023-02-03T10:34:44.438Z,7.53
2023-02-03T10:37:50.785Z,9.35
2023-02-03T10:40:32.545Z,8.70
2023-02-03T10:43:19.771Z,7.18
2023-02-03T11:03:33.371Z,6.40
2023-02-03T11:10:45.429Z,4.45
2023-02-03T11:22:32.767Z,4.28
2023-02-03T11:29:36.584Z,3.72
2023-02-03T11:36:38.013Z,4.72
2023-02-03T11:43:51.042Z,3.63
2023-02-03T11:51:02.209Z,2.25
2023-02-03T12:03:35.913Z,2.40
2023-02-03T12:06:45.806Z,3.30
2023-02-03T12:14:18.488Z,2.67
2023-02-03T12:27:01.764Z,3.88
2023-02-03T12:35:49.222Z,4.38
2023-02-03T12:52:37.864Z,4.00
2023-02-03T12:55:23.331Z,5.38
2023-02-03T13:02:23.282Z,7.68
2023-02-03T13:09:42.568Z,7.00
2023-02-03T13:16:47.266Z,6.63
2023-02-03T13:29:55.031Z,6.47
2023-02-03T13:38:10.098Z,7.38
2023-02-03T13:45:22.170Z,7.30
2023-02-03T13:48:12.579Z,7.68
2023-02-03T14:00:32.691Z,6.65
2023-02-03T14:07:55.487Z,8.27
2023-02-03T14:11:24.183Z,10.30
2023-02-03T14:14:31.220Z,9.85
2023-02-03T14:16:59.595Z,14.35
2023-02-03T14:19:57.179Z,10.15
2023-02-03T14:22:27.695Z,11.45
2023-02-03T14:26:08.583Z,12.93
2023-02-03T14:29:10.043Z,14.40
2023-02-03T14:32:01.113Z,11.07
2023-02-03T14:34:37.211Z,13.15
2023-02-03T14:37:22.163Z,9.95
2023-02-03T14:40:15.632Z,13.65
2023-02-03T14:43:49.926Z,16.00
2023-02-03T14:46:47.938Z,8.38
2023-02-03T14:50:29.717Z,11.13
2023-02-03T14:53:34.040Z,10.38
2023-02-03T14:56:14.780Z,14.18
2023-02-03T14:58:49.245Z,20.80
2023-02-03T15:01:58.903Z,23.05
2023-02-03T15:04:33.652Z,13.27
2023-02-03T15:07:44.790Z,10.65
2023-02-03T15:10:43.516Z,7.53
2023-02-03T15:13:39.776Z,10.18
2023-02-03T15:16:17.223Z,7.05
2023-02-03T15:19:25.393Z,5.32
2023-02-03T15:22:24.263Z,7.53
2023-02-03T15:25:29.463Z,8.23
2023-02-03T15:28:13.762Z,7.70
2023-02-03T15:30:58.715Z,4.15
2023-02-03T15:34:24.490Z,8.20
2023-02-03T15:36:56.687Z,3.70
2023-02-03T15:39:34.560Z,5.95
2023-02-03T15:42:08.864Z,9.48
2023-02-03T15:44:44.993Z,6.35
2023-02-03T15:48:17.536Z,6.00
2023-02-03T15:50:50.019Z,11.35
2023-02-03T15:53:27.657Z,9.73
2023-02-03T16:00:42.450Z,12.00
2023-02-03T16:03:21.615Z,9.73
2023-02-03T16:06:25.490Z,5.07
2023-02-03T16:09:37.715Z,5.75
2023-02-03T16:12:19.682Z,7.95
2023-02-03T16:15:22.808Z,9.77
2023-02-03T16:17:58.968Z,8.05
2023-02-03T16:20:51.033Z,7.15
2023-02-03T16:23:22.900Z,8.27
2023-02-03T16:26:19.262Z,7.35
2023-02-03T16:29:32.320Z,8.00
2023-02-03T16:32:59.408Z,6.38
2023-02-03T16:35:48.908Z,5.43
2023-02-03T16:38:39.409Z,8.23
2023-02-03T16:41:35.021Z,8.65
2023-02-03T16:44:30.835Z,6.75
2023-02-03T16:47:47.497Z,10.90
2023-02-03T16:50:39.573Z,10.65
2023-02-03T16:53:15.947Z,8.13
2023-02-03T16:55:45.181Z,8.95
2023-02-03T16:58:14.507Z,9.20
2023-02-03T17:00:46.618Z,3.58
2023-02-03T17:03:49.041Z,6.78
2023-02-03T17:06:51.214Z,4.60
2023-02-03T17:09:25.081Z,5.55
2023-02-03T17:11:59.427Z,9.38
2023-02-03T17:14:32.255Z,5.53
2023-02-03T17:17:04.917Z,8.98
2023-02-03T17:19:38.753Z,11.55
2023-02-03T17:22:09.117Z,7.07
2023-02-03T17:25:12.676Z,7.72
2023-02-03T17:27:41.192Z,8.50
2023-02-03T17:30:12.799Z,10.35
2023-02-03T17:32:47.141Z,8.95
2023-02-03T17:35:16.587Z,8.60
2023-02-03T17:37:48.641Z,8.00
2023-02-03T17:54:56.388Z,7.78
2023-02-03T17:57:34.556Z,7.50
2023-02-03T18:00:04.251Z,8.95
2023-02-03T18:02:42.697Z,4.47
2023-02-03T18:05:40.996Z,5.75
2023-02-03T18:08:16.350Z,7.20
2023-02-03T18:10:46.682Z,8.38
2023-02-03T18:13:16.953Z,6.20
2023-02-03T18:15:46.286Z,4.20
2023-02-03T18:18:21.491Z,4.47
2023-02-03T18:20:54.256Z,4.45
2023-02-03T18:23:35.213Z,4.47
2023-02-03T18:26:05.255Z,3.45
2023-02-03T18:28:43.152Z,2.13
2023-02-03T18:32:20.043Z,3.75
2023-02-03T18:34:49.716Z,3.53
2023-02-03T18:37:25.226Z,4.18
2023-02-03T18:39:53.749Z,5.47
2023-02-03T18:42:25.313Z,4.45
2023-02-03T18:44:57.248Z,3.92
2023-02-03T18:47:28.269Z,4.18
2023-02-03T18:49:56.599Z,2.92
2023-02-03T18:52:55.916Z,1.95
2023-02-03T18:55:31.536Z,2.33
2023-02-03T18:58:00.200Z,2.20
2023-02-03T19:00:33.909Z,2.42
2023-02-03T19:03:04.679Z,2.17
2023-02-03T19:05:34.368Z,3.28
2023-02-03T19:08:02.846Z,3.60
2023-02-03T19:10:32.408Z,4.55
2023-02-03T19:13:02.217Z,3.30
2023-02-03T19:15:30.897Z,1.73
2023-02-03T19:18:01.573Z,5.18
2023-02-03T19:20:39.184Z,0.90
2023-02-03T19:23:13.705Z,1.73
2023-02-03T19:30:37.855Z,2.05
2023-02-03T19:33:41.208Z,1.45
2023-02-03T19:36:12.458Z,1.88
2023-02-03T19:38:42.833Z,3.67
2023-02-03T19:41:17.239Z,2.92
2023-02-03T19:44:17.973Z,2.72
2023-02-03T19:46:49.735Z,4.10
2023-02-03T19:50:16.553Z,1.75
2023-02-03T19:57:29.853Z,4.93
2023-02-03T20:00:04.224Z,3.97
2023-02-03T20:07:14.949Z,1.60
2023-02-03T20:11:01.298Z,5.47
2023-02-03T20:18:45.790Z,3.58
2023-02-03T20:21:21.794Z,3.90
2023-02-03T20:26:21.057Z,2.05
2023-02-03T20:29:22.866Z,2.55
2023-02-03T20:32:29.027Z,4.13
2023-02-03T20:35:55.678Z,4.47
2023-02-03T20:38:26.280Z,6.15
2023-02-03T20:40:58.441Z,3.53
2023-02-03T20:44:28.654Z,4.57
2023-02-03T20:47:00.054Z,4.40
2023-02-03T20:49:37.905Z,5.03
2023-02-03T20:52:13.798Z,3.20
2023-02-03T20:54:49.195Z,1.75
2023-02-03T21:01:35.560Z,8.38
2023-02-03T21:09:44.299Z,5.35
2023-02-03T21:12:17.631Z,5.15
2023-02-03T21:14:53.305Z,2.65
2023-02-03T21:17:29.679Z,4.82
2023-02-03T21:24:35.779Z,3.67
2023-02-03T21:32:22.236Z,4.68
2023-02-03T21:34:50.833Z,6.25
2023-02-03T21:37:56.014Z,8.15
2023-02-03T21:40:27.606Z,12.73
2023-02-03T21:43:29.483Z,7.90
2023-02-03T21:46:35.875Z,5.68
2023-02-03T21:49:18.502Z,7.40
2023-02-03T21:52:24.306Z,5.50
2023-02-03T21:56:13.313Z,9.68
2023-02-03T21:59:16.537Z,7.88
2023-02-03T22:02:00.893Z,5.10
2023-02-03T22:05:04.304Z,4.22
2023-02-03T22:08:10.624Z,4.72
2023-02-03T22:11:08.673Z,6.40
2023-02-03T22:18:10.310Z,9.45
2023-02-03T22:20:45.555Z,19.23
2023-02-03T22:23:45.103Z,9.00
2023-02-03T22:31:30.833Z,7.18
2023-02-03T22:39:04.310Z,7.45
2023-02-03T22:45:56.544Z,7.18
2023-02-03T22:48:56.800Z,8.68
2023-02-03T22:51:44.315Z,13.48
2023-02-03T22:54:19.509Z,7.60
2023-02-03T22:57:03.131Z,8.80
2023-02-03T23:00:05.285Z,8.10
2023-02-03T23:03:12.026Z,13.35
2023-02-03T23:05:45.293Z,5.07
2023-02-03T23:08:46.575Z,9.95
2023-02-03T23:17:17.282Z,8.85
2023-02-03T23:24:30.303Z,5.00
2023-02-03T23:27:12.586Z,14.23
2023-02-03T23:30:14.665Z,6.18
2023-02-03T23:32:42.919Z,4.35
2023-02-03T23:35:47.571Z,9.90
2023-02-03T23:38:16.840Z,7.70
2023-02-03T23:40:49.065Z,7.78
2023-02-03T23:43:20.150Z,9.50
2023-02-03T23:45:49.442Z,5.63
2023-02-03T23:49:18.497Z,8.48
2023-02-03T23:51:49.953Z,5.50
2023-02-03T23:54:18.205Z,5.88
2023-02-03T23:57:16.413Z,10.82
2023-02-03T23:59:48.394Z,6.85
